Time;durP1;ratioP1;P1;durP2;ratioP2;P2;SDS_P1;SDS_P2;PMS_P1;PMS_P2;Temp;Humidity;BMP_temperature;BMP_pressure;BME280_temperature;BME280_humidity;BME280_pressure;Samples;Min_cycle;Max_cycle;Signal;HPM_P1;HPM_P2
2022/07/27 14:52:28;;;;;;;0.00;0.00;;;22.20;72.10;;;;;;5101379;27;20327;-77
2022/07/27 14:54:58;;;;;;;0.00;0.00;;;22.40;72.50;;;;;;5116974;27;20054;-77
2022/07/27 14:57:26;;;;;;;0.00;0.00;;;22.60;72.70;;;;;;5098920;28;20047;-76
2022/07/27 14:59:53;;;;;;;0.00;0.00;;;22.70;72.80;;;;;;5081671;28;20720;-75
2022/07/27 15:02:20;;;;;;;0.00;0.00;;;22.90;72.70;;;;;;5079055;28;20052;-77
2022/07/27 15:04:47;;;;;;;0.00;0.00;;;23.00;72.50;;;;;;5085252;28;20047;-76
2022/07/27 15:07:15;;;;;;;0.00;0.00;;;23.10;72.40;;;;;;5078988;28;20545;-76
2022/07/27 15:09:43;;;;;;;0.00;0.00;;;23.20;72.30;;;;;;5082360;28;20094;-78
2022/07/27 15:12:10;;;;;;;0.00;0.00;;;23.40;72.40;;;;;;5097088;28;20047;-73
2022/07/27 15:14:38;;;;;;;0.00;0.00;;;23.50;73.10;;;;;;4945157;27;72942;-75
2022/07/27 15:17:05;;;;;;;0.00;0.00;;;23.60;72.40;;;;;;4914524;28;67192;-77
2022/07/27 15:22:09;;;;;;;0.00;0.00;;;23.50;69.00;;;;;;5113620;27;20848;-85
2022/07/27 15:24:36;;;;;;;0.00;0.00;;;22.90;70.70;;;;;;5120422;27;20043;-85
2022/07/27 15:27:04;;;;;;;0.00;0.00;;;22.00;72.10;;;;;;5115637;27;20044;-85
2022/07/27 15:29:31;;;;;;;0.00;0.00;;;21.30;74.20;;;;;;5111773;28;20049;-84
2022/07/27 15:31:58;;;;;;;0.00;0.00;;;20.80;74.30;;;;;;5110011;27;20065;-85
2022/07/27 15:34:25;;;;;;;0.00;0.00;;;20.90;74.60;;;;;;5117409;27;20070;-85
2022/07/27 15:36:52;;;;;;;0.00;0.00;;;20.80;75.20;;;;;;5120460;27;20043;-84
2022/07/27 15:39:21;;;;;;;0.00;0.00;;;20.80;74.40;;;;;;5116608;27;20465;-85
2022/07/27 15:41:49;;;;;;;0.00;0.00;;;;;;;;;;5107889;28;20437;-85
2022/07/27 15:44:19;;;;;;;0.00;0.00;;;20.50;74.70;;;;;;5112438;28;20483;-84
2022/07/27 15:46:46;;;;;;;0.00;0.00;;;20.50;74.40;;;;;;5115435;28;20052;-84
2022/07/27 15:49:13;;;;;;;0.00;0.00;;;20.50;75.00;;;;;;5115553;28;20055;-84
2022/07/27 15:51:41;;;;;;;0.00;0.00;;;20.50;76.30;;;;;;5112312;27;20444;-85
2022/07/27 15:54:07;;;;;;;0.10;0.10;;;20.40;75.50;;;;;;5120185;27;20043;-85
2022/07/27 15:56:35;;;;;;;0.00;0.00;;;20.60;75.60;;;;;;5117000;27;20069;-85
2022/07/27 15:59:02;;;;;;;0.00;0.00;;;20.60;73.60;;;;;;5118009;28;20050;-84
2022/07/27 16:01:29;;;;;;;0.00;0.00;;;20.60;74.10;;;;;;5109242;27;20039;-84
2022/07/27 16:04:01;;;;;;;0.00;0.00;;;20.30;75.50;;;;;;5117846;28;20052;-85
2022/07/27 16:06:28;;;;;;;0.00;0.00;;;20.20;75.60;;;;;;5116807;28;20066;-84
2022/07/27 16:08:55;;;;;;;0.00;0.00;;;20.40;76.10;;;;;;4968016;27;20790;-84
2022/07/27 16:11:22;;;;;;;0.00;0.00;;;20.50;75.10;;;;;;5078904;28;20048;-85
2022/07/27 16:13:51;;;;;;;0.00;0.00;;;20.30;74.60;;;;;;5077617;28;20040;-85
2022/07/27 16:16:23;;;;;;;0.00;0.00;;;21.00;75.80;;;;;;5071932;28;20187;-85
2022/07/27 16:18:51;;;;;;;0.00;0.00;;;20.20;75.50;;;;;;5077721;28;20056;-85
2022/07/27 16:21:19;;;;;;;0.00;0.00;;;20.00;76.50;;;;;;5074161;28;20513;-85
2022/07/27 16:23:46;;;;;;;0.00;0.00;;;20.00;77.20;;;;;;5076630;28;20044;-84
2022/07/27 16:26:14;;;;;;;0.00;0.00;;;19.90;76.60;;;;;;5080519;28;20040;-84
2022/07/27 16:28:44;;;;;;;0.00;0.00;;;19.80;77.00;;;;;;5083910;28;20105;-85
2022/07/27 16:31:12;;;;;;;;;;;19.70;77.50;;;;;;5082316;28;20044;-84
2022/07/27 16:33:42;;;;;;;0.00;0.00;;;19.60;78.20;;;;;;5066870;28;19932;-84
2022/07/27 16:36:09;;;;;;;;;;;19.70;78.50;;;;;;5063361;28;20291;-85
2022/07/27 16:38:37;;;;;;;0.00;0.00;;;19.80;77.90;;;;;;5068958;28;19924;-84
2022/07/27 16:41:16;;;;;;;0.00;0.00;;;19.80;79.00;;;;;;5059119;28;20469;-84
2022/07/27 16:43:42;;;;;;;0.10;0.10;;;19.60;78.40;;;;;;5058901;28;20094;-85
2022/07/27 16:46:10;;;;;;;0.00;0.00;;;19.60;79.20;;;;;;5051899;28;20041;-83
2022/07/27 16:48:38;;;;;;;0.00;0.00;;;19.60;78.80;;;;;;5064278;28;20043;-84
2022/07/27 16:51:11;;;;;;;0.00;0.00;;;19.60;78.20;;;;;;5067303;28;20056;-85
2022/07/27 16:53:39;;;;;;;0.00;0.00;;;19.70;78.20;;;;;;5058760;28;20563;-85
2022/07/27 16:56:07;;;;;;;0.00;0.00;;;19.60;78.60;;;;;;5062487;28;20129;-83
2022/07/27 16:58:34;;;;;;;0.00;0.00;;;19.50;78.80;;;;;;5063092;28;20613;-84
2022/07/27 17:01:01;;;;;;;0.00;0.00;;;19.60;79.10;;;;;;5059132;28;20111;-85
2022/07/27 17:03:28;;;;;;;0.00;0.00;;;19.70;78.70;;;;;;5057674;28;20048;-85
2022/07/27 17:05:56;;;;;;;0.00;0.00;;;19.80;78.10;;;;;;5056316;28;20055;-86
2022/07/27 17:08:30;;;;;;;0.00;0.00;;;19.70;78.20;;;;;;5060430;28;20050;-85
2022/07/27 17:10:59;;;;;;;0.00;0.00;;;19.80;78.10;;;;;;5058592;28;20044;-86
2022/07/27 17:13:28;;;;;;;0.00;0.00;;;19.70;78.90;;;;;;5061847;28;20053;-86
2022/07/27 17:16:00;;;;;;;0.00;0.00;;;19.80;79.40;;;;;;5058690;28;20102;-87
2022/07/27 17:18:27;;;;;;;0.00;0.00;;;19.80;78.80;;;;;;5080857;28;20450;-85
2022/07/27 17:20:53;;;;;;;0.00;0.00;;;19.70;78.90;;;;;;5067637;28;20102;-85
2022/07/27 17:23:22;;;;;;;0.00;0.00;;;19.60;77.50;;;;;;5066272;28;20380;-85
2022/07/27 17:25:49;;;;;;;0.00;0.00;;;19.80;78.00;;;;;;5065216;28;20420;-86
2022/07/27 17:28:16;;;;;;;0.00;0.00;;;20.20;78.50;;;;;;5064577;28;20490;-86
2022/07/27 17:30:43;;;;;;;0.00;0.00;;;19.70;78.10;;;;;;5074315;28;20063;-85
2022/07/27 17:33:10;;;;;;;0.00;0.00;;;19.70;77.90;;;;;;5067558;28;20400;-87
2022/07/27 17:35:37;;;;;;;0.00;0.00;;;19.70;77.50;;;;;;5062500;28;20041;-82
2022/07/27 17:38:04;;;;;;;0.00;0.00;;;19.60;76.50;;;;;;5065524;28;20055;-84
2022/07/27 17:40:34;;;;;;;0.00;0.00;;;19.60;76.60;;;;;;5069900;28;20489;-85
2022/07/27 17:43:01;;;;;;;0.00;0.00;;;19.50;77.00;;;;;;5074482;28;20049;-84
2022/07/27 17:45:28;;;;;;;0.00;0.00;;;19.50;77.90;;;;;;5064657;28;20048;-86
2022/07/27 17:47:55;;;;;;;0.00;0.00;;;19.50;77.80;;;;;;5058842;28;20071;-85
2022/07/27 17:50:22;;;;;;;0.00;0.00;;;19.60;76.90;;;;;;5052784;28;20037;-83
2022/07/27 17:52:49;;;;;;;0.00;0.00;;;19.70;77.10;;;;;;5053414;28;20041;-84
2022/07/27 17:55:16;;;;;;;0.00;0.00;;;19.60;76.20;;;;;;5056163;28;20048;-85
2022/07/27 17:57:44;;;;;;;0.00;0.00;;;19.50;77.40;;;;;;5068277;28;20048;-84
2022/07/27 18:00:12;;;;;;;0.00;0.00;;;19.70;77.50;;;;;;5062160;28;20044;-86
2022/07/27 18:02:39;;;;;;;0.00;0.00;;;19.20;78.50;;;;;;5056040;28;20053;-85
2022/07/27 18:05:06;;;;;;;0.00;0.00;;;19.10;79.10;;;;;;5055768;28;20056;-86
2022/07/27 18:07:33;;;;;;;0.00;0.00;;;19.00;79.80;;;;;;5060388;28;20090;-85
2022/07/27 18:10:07;;;;;;;0.00;0.00;;;18.90;81.50;;;;;;5055224;28;20110;-85
2022/07/27 18:12:34;;;;;;;0.00;0.00;;;18.80;81.80;;;;;;5061453;28;20040;-84
2022/07/27 18:17:49;;;;;;;0.00;0.00;;;18.60;83.10;;;;;;5053462;28;20056;-84
2022/07/27 18:20:16;;;;;;;0.00;0.00;;;18.50;84.20;;;;;;5055983;28;20114;-83
2022/07/27 18:22:42;;;;;;;0.00;0.00;;;19.40;84.00;;;;;;5059863;28;20041;-84
2022/07/27 18:25:10;;;;;;;0.10;0.10;;;18.70;83.30;;;;;;5059820;28;20067;-85
2022/07/27 18:27:37;;;;;;;0.00;0.00;;;18.70;83.60;;;;;;5055766;28;20040;-84
2022/07/27 18:30:06;;;;;;;0.10;0.10;;;18.70;83.40;;;;;;5053336;28;20048;-84
2022/07/27 18:32:33;;;;;;;0.00;0.00;;;18.70;83.50;;;;;;5057660;28;20082;-85
2022/07/27 18:35:00;;;;;;;0.00;0.00;;;19.10;83.40;;;;;;5057775;28;20615;-85
2022/07/27 18:37:27;;;;;;;0.00;0.00;;;18.80;83.60;;;;;;5061121;28;20041;-84
2022/07/27 18:39:54;;;;;;;0.00;0.00;;;18.70;83.80;;;;;;5021113;28;20052;-86
2022/07/27 18:42:21;;;;;;;0.00;0.00;;;18.60;84.10;;;;;;5050104;28;20037;-84
2022/07/27 18:44:47;;;;;;;0.00;0.00;;;18.50;84.10;;;;;;5060380;28;20090;-85
2022/07/27 18:47:16;;;;;;;0.00;0.00;;;18.40;84.70;;;;;;5060695;28;20048;-85
2022/07/27 18:49:42;;;;;;;0.00;0.00;;;18.30;84.90;;;;;;5059291;28;20136;-85
2022/07/27 18:52:09;;;;;;;0.00;0.00;;;19.80;86.20;;;;;;5059254;28;20048;-84
2022/07/27 18:54:36;;;;;;;0.10;0.10;;;18.30;85.10;;;;;;5062462;28;20397;-85
2022/07/27 18:57:03;;;;;;;0.00;0.00;;;18.30;85.40;;;;;;5064449;28;20432;-85
2022/07/27 18:59:30;;;;;;;0.00;0.00;;;20.10;86.40;;;;;;5067554;28;20052;-84
2022/07/27 19:01:57;;;;;;;0.00;0.00;;;18.10;85.70;;;;;;5059617;28;20083;-84
2022/07/27 19:04:25;;;;;;;0.10;0.10;;;18.20;85.80;;;;;;5054866;28;20044;-84
2022/07/27 19:06:52;;;;;;;0.10;0.10;;;18.00;86.30;;;;;;5058566;28;20052;-85
2022/07/27 19:09:20;;;;;;;0.00;0.00;;;18.00;86.20;;;;;;5057896;28;20063;-85
2022/07/27 19:11:47;;;;;;;0.00;0.00;;;18.00;85.80;;;;;;5053548;28;20036;-85
2022/07/27 19:14:14;;;;;;;0.00;0.00;;;18.00;86.30;;;;;;5053501;28;20045;-85
2022/07/27 19:16:40;;;;;;;0.00;0.00;;;17.90;86.60;;;;;;5054528;28;20072;-86
2022/07/27 19:19:07;;;;;;;0.00;0.00;;;18.00;86.20;;;;;;5057430;28;20043;-84
2022/07/27 19:21:42;;;;;;;0.00;0.00;;;17.90;86.80;;;;;;5055821;28;20140;-86
2022/07/27 19:24:10;;;;;;;0.00;0.00;;;17.80;87.00;;;;;;5055605;28;20408;-85
2022/07/27 19:26:36;;;;;;;0.00;0.00;;;17.70;86.30;;;;;;5069051;28;20041;-84
2022/07/27 19:29:03;;;;;;;0.00;0.00;;;17.60;86.40;;;;;;5056664;28;20052;-86
2022/07/27 19:31:30;;;;;;;0.00;0.00;;;17.50;86.40;;;;;;5049813;28;20075;-87
2022/07/27 19:33:57;;;;;;;0.10;0.10;;;17.50;86.10;;;;;;5054224;28;20115;-84
2022/07/27 19:36:24;;;;;;;0.00;0.00;;;17.50;85.50;;;;;;5060641;28;20041;-85
2022/07/27 19:38:53;;;;;;;0.00;0.00;;;17.40;85.80;;;;;;5060916;28;20515;-86
2022/07/27 19:41:20;;;;;;;0.00;0.00;;;17.30;84.80;;;;;;5057304;28;20318;-86
2022/07/27 19:43:47;;;;;;;0.00;0.00;;;17.20;84.70;;;;;;5059452;28;20115;-85
2022/07/27 19:46:14;;;;;;;0.00;0.00;;;17.20;85.20;;;;;;5062106;28;20075;-85
2022/07/27 19:48:41;;;;;;;0.00;0.00;;;17.10;85.40;;;;;;5047843;28;20040;-85
2022/07/27 19:51:08;;;;;;;0.00;0.00;;;17.20;85.30;;;;;;5054134;28;20567;-85
2022/07/27 19:53:35;;;;;;;0.00;0.00;;;17.10;85.10;;;;;;5065856;28;20045;-85
2022/07/27 19:56:03;;;;;;;0.00;0.00;;;17.00;85.30;;;;;;5065412;28;20114;-82
2022/07/27 19:58:30;;;;;;;0.00;0.00;;;17.20;85.00;;;;;;5065385;28;20093;-85
2022/07/27 20:00:57;;;;;;;0.00;0.00;;;17.20;85.10;;;;;;5064570;28;20052;-86
2022/07/27 20:03:24;;;;;;;0.00;0.00;;;17.10;85.30;;;;;;5061800;28;20119;-85
2022/07/27 20:05:51;;;;;;;0.00;0.00;;;17.20;85.10;;;;;;5063363;28;20044;-84
2022/07/27 20:08:18;;;;;;;0.00;0.00;;;17.10;85.60;;;;;;5062672;28;20106;-85
2022/07/27 20:10:46;;;;;;;0.00;0.00;;;17.00;85.70;;;;;;5059659;28;20044;-86
2022/07/27 20:13:14;;;;;;;0.00;0.00;;;17.00;85.90;;;;;;5069704;28;20048;-85
2022/07/27 20:15:41;;;;;;;0.00;0.00;;;16.90;86.40;;;;;;5067291;28;20512;-84
2022/07/27 20:18:08;;;;;;;0.00;0.00;;;16.70;87.00;;;;;;5062755;28;20048;-85
2022/07/27 20:20:35;;;;;;;0.00;0.00;;;16.70;87.30;;;;;;5064989;28;20044;-83
2022/07/27 20:23:02;;;;;;;0.00;0.00;;;16.70;88.00;;;;;;5066826;28;20044;-84
2022/07/27 20:25:29;;;;;;;0.00;0.00;;;16.60;88.40;;;;;;5066649;28;20048;-86
2022/07/27 20:27:56;;;;;;;0.10;0.10;;;16.50;88.70;;;;;;5070230;28;20052;-86
2022/07/27 20:30:24;;;;;;;0.00;0.00;;;16.50;89.00;;;;;;5066432;28;20040;-85
2022/07/27 20:32:52;;;;;;;0.00;0.00;;;16.50;89.00;;;;;;5062638;28;20037;-86
2022/07/27 20:35:18;;;;;;;0.05;0.05;;;16.40;89.00;;;;;;5063651;28;20094;-86
2022/07/27 20:37:46;;;;;;;0.00;0.00;;;16.40;89.20;;;;;;5069895;28;20048;-86
2022/07/27 20:40:14;;;;;;;0.10;0.10;;;16.40;90.00;;;;;;5067593;28;20452;-86
2022/07/27 20:42:47;;;;;;;0.10;0.10;;;16.30;89.80;;;;;;5070340;28;20049;-85
2022/07/27 20:45:14;;;;;;;0.00;0.00;;;16.30;89.50;;;;;;5062455;28;20047;-86
2022/07/27 20:47:42;;;;;;;0.00;0.00;;;16.30;89.80;;;;;;5069623;28;20500;-85
2022/07/27 20:50:11;;;;;;;0.00;0.00;;;16.30;90.10;;;;;;5068894;28;20080;-86
2022/07/27 20:52:39;;;;;;;0.00;0.00;;;16.10;90.10;;;;;;5068583;28;20532;-85
2022/07/27 20:55:08;;;;;;;0.00;0.00;;;16.10;90.10;;;;;;5058052;28;20047;-84
2022/07/27 20:57:34;;;;;;;0.00;0.00;;;16.20;90.10;;;;;;5057926;28;20052;-84
2022/07/27 21:00:02;;;;;;;0.00;0.00;;;16.20;90.30;;;;;;5055240;28;20404;-84
2022/07/27 21:02:29;;;;;;;0.00;0.00;;;16.20;90.00;;;;;;5064158;28;20056;-85
2022/07/27 21:04:58;;;;;;;0.00;0.00;;;16.00;90.90;;;;;;5065315;28;20052;-85
2022/07/27 21:07:26;;;;;;;0.03;0.03;;;;;;;;;;5061270;28;20096;-85
2022/07/27 21:09:53;;;;;;;0.00;0.00;;;15.90;90.80;;;;;;5051278;28;20033;-85
2022/07/27 21:12:19;;;;;;;0.00;0.00;;;15.90;90.40;;;;;;5061704;28;20459;-85
2022/07/27 21:14:46;;;;;;;0.00;0.00;;;16.00;90.60;;;;;;5059052;28;20053;-85
2022/07/27 21:17:13;;;;;;;0.00;0.00;;;15.90;90.10;;;;;;5065815;28;20037;-85
2022/07/27 21:19:40;;;;;;;0.00;0.00;;;15.80;90.30;;;;;;5068022;28;20511;-85
2022/07/27 21:22:08;;;;;;;0.00;0.00;;;15.80;90.40;;;;;;5067132;28;20056;-85
2022/07/27 21:24:35;;;;;;;0.00;0.00;;;15.90;90.20;;;;;;5016824;23;20700;-84
2022/07/27 21:27:02;;;;;;;0.00;0.00;;;16.30;90.90;;;;;;4977156;28;20050;-84
2022/07/27 21:29:31;;;;;;;0.00;0.00;;;15.60;90.60;;;;;;4983930;28;20047;-84
2022/07/27 21:31:58;;;;;;;0.00;0.00;;;16.90;90.60;;;;;;4978098;28;20050;-83
2022/07/27 21:34:25;;;;;;;0.03;0.03;;;15.70;90.60;;;;;;4973644;28;20043;-83
2022/07/27 21:36:52;;;;;;;0.00;0.00;;;15.70;90.60;;;;;;4981712;28;20050;-85
2022/07/27 21:39:20;;;;;;;0.00;0.00;;;15.60;90.40;;;;;;4974829;28;20046;-83
2022/07/27 21:41:47;;;;;;;0.00;0.00;;;15.50;90.50;;;;;;4980394;28;20047;-84
2022/07/27 21:44:14;;;;;;;0.00;0.00;;;15.50;90.30;;;;;;4973216;28;20050;-83
2022/07/27 21:46:41;;;;;;;0.00;0.00;;;15.40;90.40;;;;;;4978931;28;20047;-84
2022/07/27 21:49:09;;;;;;;0.00;0.00;;;15.40;90.50;;;;;;4976552;28;20058;-84
2022/07/27 21:51:36;;;;;;;0.00;0.00;;;15.40;90.90;;;;;;4977386;28;20051;-84
2022/07/27 21:54:03;;;;;;;0.00;0.00;;;15.40;91.10;;;;;;4968288;28;20055;-84
2022/07/27 21:56:32;;;;;;;0.00;0.00;;;15.30;90.90;;;;;;4982864;28;20054;-83
2022/07/27 21:59:08;;;;;;;0.00;0.00;;;15.30;91.10;;;;;;4978206;28;20050;-84
2022/07/27 22:01:35;;;;;;;0.00;0.00;;;15.30;91.20;;;;;;4971021;28;20050;-83
2022/07/27 22:04:02;;;;;;;0.00;0.00;;;15.20;91.40;;;;;;4978008;28;20035;-84
2022/07/27 22:06:29;;;;;;;0.00;0.00;;;15.20;91.40;;;;;;4975840;28;20053;-83
2022/07/27 22:08:56;;;;;;;0.10;0.10;;;15.30;90.70;;;;;;4975976;28;20043;-82
2022/07/27 22:11:23;;;;;;;0.10;0.10;;;15.20;91.10;;;;;;4979680;28;20051;-84
2022/07/27 22:13:51;;;;;;;0.00;0.00;;;15.00;91.20;;;;;;4982042;28;20054;-84
2022/07/27 22:16:18;;;;;;;0.00;0.00;;;14.90;91.20;;;;;;4972363;28;20046;-84
2022/07/27 22:18:45;;;;;;;0.00;0.00;;;15.10;91.40;;;;;;4979966;28;20039;-84
2022/07/27 22:21:12;;;;;;;0.00;0.00;;;14.90;91.70;;;;;;4976714;28;20051;-83
2022/07/27 22:23:39;;;;;;;0.00;0.00;;;14.90;91.80;;;;;;4979176;28;20050;-83
2022/07/27 22:26:06;;;;;;;0.00;0.00;;;14.90;92.10;;;;;;4978533;28;20495;-83
2022/07/27 22:28:34;;;;;;;0.00;0.00;;;14.80;92.20;;;;;;4982698;28;20070;-84
2022/07/27 22:31:02;;;;;;;0.00;0.00;;;14.80;92.10;;;;;;4978669;28;20385;-84
2022/07/27 22:33:48;;;;;;;0.08;0.08;;;14.70;92.50;;;;;;4981144;28;20053;-84
2022/07/27 22:36:15;;;;;;;0.00;0.00;;;14.70;92.50;;;;;;4977302;28;20483;-84
2022/07/27 22:38:42;;;;;;;0.00;0.00;;;14.70;92.60;;;;;;4980060;28;20054;-83
2022/07/27 22:41:09;;;;;;;0.00;0.00;;;14.60;92.40;;;;;;4980777;28;20055;-85
2022/07/27 22:43:36;;;;;;;0.00;0.00;;;14.50;92.80;;;;;;4980484;28;20178;-83
2022/07/27 22:46:05;;;;;;;0.00;0.00;;;14.50;93.10;;;;;;4978965;28;20043;-84
2022/07/27 22:48:32;;;;;;;0.00;0.00;;;14.40;93.50;;;;;;4985977;28;20050;-84
2022/07/27 22:50:59;;;;;;;0.00;0.00;;;14.30;93.40;;;;;;4981483;28;20054;-83
2022/07/27 22:53:26;;;;;;;0.10;0.10;;;14.20;93.50;;;;;;4983068;28;20266;-84
2022/07/27 22:55:53;;;;;;;0.00;0.00;;;14.20;93.50;;;;;;4981236;28;20047;-84
2022/07/27 22:58:20;;;;;;;0.00;0.00;;;14.20;93.50;;;;;;4985000;28;20525;-84
2022/07/27 23:00:47;;;;;;;0.00;0.00;;;14.10;93.70;;;;;;4985666;28;20042;-84
2022/07/27 23:03:16;;;;;;;0.10;0.10;;;14.10;93.80;;;;;;4986680;28;20084;-84
2022/07/27 23:05:43;;;;;;;0.00;0.00;;;14.00;93.80;;;;;;4979576;28;20045;-84
2022/07/27 23:08:10;;;;;;;0.10;0.10;;;13.90;94.20;;;;;;4985720;28;20046;-83
2022/07/27 23:10:46;;;;;;;0.03;0.03;;;13.80;94.20;;;;;;4984302;28;20042;-83
2022/07/27 23:13:13;;;;;;;0.00;0.00;;;13.70;94.50;;;;;;4984167;28;20043;-84
2022/07/27 23:15:40;;;;;;;0.00;0.00;;;13.50;95.00;;;;;;4982101;28;20034;-83
2022/07/27 23:18:07;;;;;;;0.00;0.00;;;14.40;95.30;;;;;;4968939;28;20093;-84
2022/07/27 23:20:36;;;;;;;0.00;0.00;;;13.40;95.10;;;;;;4986093;28;20046;-84
2022/07/27 23:23:03;;;;;;;0.03;0.03;;;13.40;95.00;;;;;;4982069;28;20437;-83
2022/07/27 23:25:41;;;;;;;0.03;0.03;;;13.30;95.30;;;;;;4986416;28;20062;-83
2022/07/27 23:28:08;;;;;;;0.10;0.10;;;13.20;95.50;;;;;;4981230;28;20058;-83
2022/07/27 23:30:34;;;;;;;0.00;0.00;;;13.60;95.90;;;;;;4987967;28;20051;-84
2022/07/27 23:33:01;;;;;;;0.00;0.00;;;13.20;95.50;;;;;;4989532;28;20051;-82
2022/07/27 23:35:29;;;;;;;0.10;0.10;;;13.00;96.00;;;;;;4983422;28;20061;-83
2022/07/27 23:37:57;;;;;;;0.00;0.00;;;12.70;96.40;;;;;;4987736;28;20057;-84
2022/07/27 23:40:24;;;;;;;0.00;0.00;;;12.70;96.40;;;;;;4984092;28;20102;-85
2022/07/27 23:42:51;;;;;;;0.03;0.03;;;12.90;95.80;;;;;;4985206;28;20419;-84
2022/07/27 23:45:18;;;;;;;0.00;0.00;;;12.90;95.90;;;;;;4986299;28;20107;-83
2022/07/27 23:47:45;;;;;;;0.10;0.10;;;12.90;95.80;;;;;;4987381;28;20090;-85
2022/07/27 23:50:13;;;;;;;0.00;0.00;;;12.90;95.80;;;;;;4986732;28;20448;-84
2022/07/27 23:52:40;;;;;;;0.00;0.00;;;12.90;96.00;;;;;;4991693;28;20043;-84
2022/07/27 23:55:08;;;;;;;0.08;0.08;;;12.90;95.90;;;;;;4986684;28;20046;-84
2022/07/27 23:57:35;;;;;;;0.00;0.00;;;12.80;96.00;;;;;;4989172;28;20046;-83
